sensor_id;sensor_type;location;lat;lon;timestamp;pressure;altitude;pressure_sealevel;temperature;humidity
23176;BME280;19910;42.652;23.332;2022-09-27T00:01:17;93726.59;;;14.39;100.00
23176;BME280;19910;42.652;23.332;2022-09-27T00:03:44;93733.63;;;14.40;100.00
23176;BME280;19910;42.652;23.332;2022-09-27T00:06:13;93730.41;;;14.31;100.00
23176;BME280;19910;42.652;23.332;2022-09-27T00:08:41;93727.22;;;14.25;100.00
23176;BME280;19910;42.652;23.332;2022-09-27T00:11:11;93724.84;;;14.23;100.00
23176;BME280;19910;42.652;23.332;2022-09-27T00:13:42;93723.22;;;14.15;100.00
23176;BME280;19910;42.652;23.332;2022-09-27T00:16:09;93734.13;;;14.15;100.00
23176;BME280;19910;42.652;23.332;2022-09-27T00:18:37;93738.84;;;14.18;100.00
23176;BME280;19910;42.652;23.332;2022-09-27T00:21:06;93745.00;;;14.15;100.00
23176;BME280;19910;42.652;23.332;2022-09-27T00:23:33;93735.28;;;14.14;100.00
23176;BME280;19910;42.652;23.332;2022-09-27T00:26:00;93740.72;;;14.14;100.00
23176;BME280;19910;42.652;23.332;2022-09-27T00:28:28;93738.28;;;14.06;100.00
23176;BME280;19910;42.652;23.332;2022-09-27T00:30:55;93744.84;;;14.01;100.00
23176;BME280;19910;42.652;23.332;2022-09-27T00:33:24;93742.50;;;14.00;100.00
23176;BME280;19910;42.652;23.332;2022-09-27T00:35:52;93746.31;;;13.95;100.00
23176;BME280;19910;42.652;23.332;2022-09-27T00:38:19;93731.53;;;13.96;100.00
23176;BME280;19910;42.652;23.332;2022-09-27T00:40:47;93726.06;;;13.93;100.00
23176;BME280;19910;42.652;23.332;2022-09-27T00:43:17;93726.88;;;13.97;100.00
23176;BME280;19910;42.652;23.332;2022-09-27T00:45:47;93731.28;;;14.08;100.00
23176;BME280;19910;42.652;23.332;2022-09-27T00:48:18;93730.97;;;14.13;100.00
23176;BME280;19910;42.652;23.332;2022-09-27T00:50:49;93728.56;;;14.05;100.00
23176;BME280;19910;42.652;23.332;2022-09-27T00:53:23;93728.41;;;13.94;100.00
23176;BME280;19910;42.652;23.332;2022-09-27T00:55:54;93732.00;;;14.02;100.00
23176;BME280;19910;42.652;23.332;2022-09-27T00:58:26;93729.75;;;14.07;100.00
23176;BME280;19910;42.652;23.332;2022-09-27T01:00:56;93710.91;;;13.95;100.00
23176;BME280;19910;42.652;23.332;2022-09-27T01:03:31;93720.69;;;14.00;100.00
23176;BME280;19910;42.652;23.332;2022-09-27T01:06:00;93726.19;;;14.03;100.00
23176;BME280;19910;42.652;23.332;2022-09-27T01:08:28;93692.47;;;13.81;100.00
23176;BME280;19910;42.652;23.332;2022-09-27T01:11:09;93696.06;;;13.89;100.00
23176;BME280;19910;42.652;23.332;2022-09-27T01:13:43;93709.69;;;13.89;100.00
23176;BME280;19910;42.652;23.332;2022-09-27T01:16:20;93715.13;;;13.89;100.00
23176;BME280;19910;42.652;23.332;2022-09-27T01:18:58;93712.16;;;14.01;100.00
23176;BME280;19910;42.652;23.332;2022-09-27T01:21:43;93695.00;;;13.97;100.00
23176;BME280;19910;42.652;23.332;2022-09-27T01:30:53;93696.81;;;13.86;100.00
23176;BME280;19910;42.652;23.332;2022-09-27T01:33:28;93687.31;;;13.73;100.00
23176;BME280;19910;42.652;23.332;2022-09-27T01:36:07;93705.59;;;13.72;100.00
23176;BME280;19910;42.652;23.332;2022-09-27T01:38:44;93685.34;;;13.70;100.00
23176;BME280;19910;42.652;23.332;2022-09-27T01:41:23;93707.22;;;13.77;100.00
23176;BME280;19910;42.652;23.332;2022-09-27T01:43:56;93701.66;;;13.70;100.00
23176;BME280;19910;42.652;23.332;2022-09-27T01:46:30;93686.06;;;13.67;100.00
23176;BME280;19910;42.652;23.332;2022-09-27T01:48:59;93712.53;;;13.70;100.00
23176;BME280;19910;42.652;23.332;2022-09-27T01:51:32;93705.63;;;13.76;100.00
23176;BME280;19910;42.652;23.332;2022-09-27T01:54:03;93700.94;;;13.73;100.00
23176;BME280;19910;42.652;23.332;2022-09-27T01:56:33;93703.75;;;13.80;100.00
23176;BME280;19910;42.652;23.332;2022-09-27T01:59:06;93706.06;;;13.78;100.00
23176;BME280;19910;42.652;23.332;2022-09-27T02:01:38;93694.75;;;13.76;100.00
23176;BME280;19910;42.652;23.332;2022-09-27T02:04:07;93684.66;;;13.76;100.00
23176;BME280;19910;42.652;23.332;2022-09-27T02:06:39;93667.44;;;13.69;100.00
23176;BME280;19910;42.652;23.332;2022-09-27T02:09:10;93690.03;;;13.73;100.00
23176;BME280;19910;42.652;23.332;2022-09-27T02:11:41;93683.88;;;13.76;100.00
23176;BME280;19910;42.652;23.332;2022-09-27T02:14:15;93687.50;;;13.57;100.00
23176;BME280;19910;42.652;23.332;2022-09-27T02:16:48;93645.41;;;13.47;100.00
23176;BME280;19910;42.652;23.332;2022-09-27T02:19:25;93642.38;;;13.52;100.00
23176;BME280;19910;42.652;23.332;2022-09-27T02:21:56;93665.78;;;13.61;100.00
23176;BME280;19910;42.652;23.332;2022-09-27T02:24:32;93669.00;;;13.70;100.00
23176;BME280;19910;42.652;23.332;2022-09-27T02:27:06;93652.72;;;13.73;100.00
23176;BME280;19910;42.652;23.332;2022-09-27T02:29:41;93608.16;;;13.51;100.00
23176;BME280;19910;42.652;23.332;2022-09-27T02:32:13;93605.16;;;13.60;100.00
23176;BME280;19910;42.652;23.332;2022-09-27T02:34:40;93605.09;;;13.57;100.00
23176;BME280;19910;42.652;23.332;2022-09-27T02:37:10;93600.56;;;13.68;100.00
23176;BME280;19910;42.652;23.332;2022-09-27T02:39:37;93596.25;;;13.67;100.00
23176;BME280;19910;42.652;23.332;2022-09-27T02:42:04;93602.94;;;13.73;100.00
23176;BME280;19910;42.652;23.332;2022-09-27T02:44:32;93616.22;;;13.78;100.00
23176;BME280;19910;42.652;23.332;2022-09-27T02:47:11;93627.59;;;13.87;100.00
23176;BME280;19910;42.652;23.332;2022-09-27T02:49:53;93609.22;;;13.77;100.00
23176;BME280;19910;42.652;23.332;2022-09-27T02:52:28;93619.28;;;13.73;100.00
23176;BME280;19910;42.652;23.332;2022-09-27T02:55:06;93610.63;;;13.64;100.00
23176;BME280;19910;42.652;23.332;2022-09-27T02:57:42;93627.69;;;13.61;100.00
23176;BME280;19910;42.652;23.332;2022-09-27T03:00:15;93634.75;;;13.65;100.00
23176;BME280;19910;42.652;23.332;2022-09-27T03:02:50;93625.38;;;13.63;100.00
23176;BME280;19910;42.652;23.332;2022-09-27T03:05:23;93605.94;;;13.61;100.00
23176;BME280;19910;42.652;23.332;2022-09-27T03:07:51;93605.09;;;13.57;100.00
23176;BME280;19910;42.652;23.332;2022-09-27T03:10:19;93589.28;;;13.69;100.00
23176;BME280;19910;42.652;23.332;2022-09-27T03:12:47;93574.00;;;13.58;100.00
23176;BME280;19910;42.652;23.332;2022-09-27T03:15:15;93577.09;;;13.52;100.00
23176;BME280;19910;42.652;23.332;2022-09-27T03:17:42;93567.75;;;13.53;100.00
23176;BME280;19910;42.652;23.332;2022-09-27T03:20:09;93551.41;;;13.53;100.00
23176;BME280;19910;42.652;23.332;2022-09-27T03:22:37;93565.84;;;13.58;100.00
23176;BME280;19910;42.652;23.332;2022-09-27T03:25:06;93571.69;;;13.60;100.00
23176;BME280;19910;42.652;23.332;2022-09-27T03:27:33;93563.59;;;13.67;100.00
23176;BME280;19910;42.652;23.332;2022-09-27T03:30:00;93563.38;;;13.79;100.00
23176;BME280;19910;42.652;23.332;2022-09-27T03:32:27;93564.84;;;13.73;100.00
23176;BME280;19910;42.652;23.332;2022-09-27T03:34:55;93559.06;;;13.78;100.00
23176;BME280;19910;42.652;23.332;2022-09-27T03:37:22;93568.28;;;13.66;100.00
23176;BME280;19910;42.652;23.332;2022-09-27T03:39:52;93554.63;;;13.63;100.00
23176;BME280;19910;42.652;23.332;2022-09-27T03:42:19;93561.19;;;13.58;100.00
23176;BME280;19910;42.652;23.332;2022-09-27T03:44:46;93553.81;;;13.59;100.00
23176;BME280;19910;42.652;23.332;2022-09-27T03:47:12;93540.28;;;13.66;100.00
23176;BME280;19910;42.652;23.332;2022-09-27T03:49:39;93532.81;;;13.59;100.00
23176;BME280;19910;42.652;23.332;2022-09-27T03:52:06;93541.31;;;13.54;100.00
23176;BME280;19910;42.652;23.332;2022-09-27T03:54:32;93568.56;;;13.58;100.00
23176;BME280;19910;42.652;23.332;2022-09-27T03:57:01;93575.31;;;13.71;100.00
23176;BME280;19910;42.652;23.332;2022-09-27T03:59:29;93568.66;;;13.65;100.00
23176;BME280;19910;42.652;23.332;2022-09-27T04:01:56;93566.41;;;13.74;100.00
23176;BME280;19910;42.652;23.332;2022-09-27T04:04:22;93575.78;;;13.76;100.00
23176;BME280;19910;42.652;23.332;2022-09-27T04:06:49;93567.66;;;13.80;100.00
23176;BME280;19910;42.652;23.332;2022-09-27T04:09:16;93555.63;;;13.84;100.00
23176;BME280;19910;42.652;23.332;2022-09-27T04:11:43;93555.59;;;13.81;100.00
23176;BME280;19910;42.652;23.332;2022-09-27T04:14:11;93557.97;;;13.86;100.00
23176;BME280;19910;42.652;23.332;2022-09-27T04:16:38;93556.34;;;13.78;100.00
23176;BME280;19910;42.652;23.332;2022-09-27T04:19:05;93560.22;;;13.77;100.00
23176;BME280;19910;42.652;23.332;2022-09-27T04:21:33;93559.50;;;13.80;100.00
23176;BME280;19910;42.652;23.332;2022-09-27T04:24:01;93545.88;;;13.80;100.00
23176;BME280;19910;42.652;23.332;2022-09-27T04:26:29;93557.97;;;13.86;100.00
23176;BME280;19910;42.652;23.332;2022-09-27T04:28:56;93560.38;;;13.91;100.00
23176;BME280;19910;42.652;23.332;2022-09-27T04:31:24;93553.78;;;13.92;100.00
23176;BME280;19910;42.652;23.332;2022-09-27T04:33:51;93535.09;;;13.94;100.00
23176;BME280;19910;42.652;23.332;2022-09-27T04:36:20;93549.91;;;13.93;100.00
23176;BME280;19910;42.652;23.332;2022-09-27T04:38:53;93552.66;;;14.00;100.00
23176;BME280;19910;42.652;23.332;2022-09-27T04:41:22;93549.47;;;13.91;100.00
23176;BME280;19910;42.652;23.332;2022-09-27T04:43:49;93546.75;;;13.91;100.00
23176;BME280;19910;42.652;23.332;2022-09-27T04:46:16;93549.91;;;13.93;100.00
23176;BME280;19910;42.652;23.332;2022-09-27T04:48:46;93561.16;;;13.92;100.00
23176;BME280;19910;42.652;23.332;2022-09-27T04:51:13;93574.44;;;14.00;100.00
23176;BME280;19910;42.652;23.332;2022-09-27T04:53:42;93585.34;;;14.00;100.00
23176;BME280;19910;42.652;23.332;2022-09-27T04:56:09;93572.16;;;14.02;100.00
23176;BME280;19910;42.652;23.332;2022-09-27T04:58:35;93572.88;;;13.99;100.00
23176;BME280;19910;42.652;23.332;2022-09-27T05:01:03;93575.59;;;13.99;100.00
23176;BME280;19910;42.652;23.332;2022-09-27T05:03:30;93567.41;;;13.96;100.00
23176;BME280;19910;42.652;23.332;2022-09-27T05:05:59;93561.94;;;13.92;100.00
23176;BME280;19910;42.652;23.332;2022-09-27T05:08:26;93563.94;;;13.99;100.00
23176;BME280;19910;42.652;23.332;2022-09-27T05:10:53;93557.28;;;13.96;100.00
23176;BME280;19910;42.652;23.332;2022-09-27T05:13:20;93551.09;;;13.99;100.00
23176;BME280;19910;42.652;23.332;2022-09-27T05:15:47;93554.38;;;14.15;100.00
23176;BME280;19910;42.652;23.332;2022-09-27T05:18:13;93535.00;;;14.28;100.00
23176;BME280;19910;42.652;23.332;2022-09-27T05:20:41;93537.28;;;14.18;100.00
23176;BME280;19910;42.652;23.332;2022-09-27T05:23:09;93554.41;;;14.19;100.00
23176;BME280;19910;42.652;23.332;2022-09-27T05:25:36;93540.78;;;14.22;100.00
23176;BME280;19910;42.652;23.332;2022-09-27T05:28:03;93531.06;;;14.21;100.00
23176;BME280;19910;42.652;23.332;2022-09-27T05:30:30;93531.84;;;14.18;100.00
23176;BME280;19910;42.652;23.332;2022-09-27T05:32:57;93543.63;;;14.37;100.00
23176;BME280;19910;42.652;23.332;2022-09-27T05:35:24;93522.53;;;14.27;100.00
23176;BME280;19910;42.652;23.332;2022-09-27T05:37:52;93517.81;;;14.16;100.00
23176;BME280;19910;42.652;23.332;2022-09-27T05:40:21;93527.59;;;14.24;100.00
23176;BME280;19910;42.652;23.332;2022-09-27T05:42:49;93548.69;;;14.35;100.00
23176;BME280;19910;42.652;23.332;2022-09-27T05:45:16;93533.50;;;14.34;100.00
23176;BME280;19910;42.652;23.332;2022-09-27T05:47:43;93557.22;;;14.30;100.00
23176;BME280;19910;42.652;23.332;2022-09-27T05:50:17;93546.72;;;14.32;100.00
23176;BME280;19910;42.652;23.332;2022-09-27T05:52:44;93535.22;;;14.52;100.00
23176;BME280;19910;42.652;23.332;2022-09-27T05:55:11;93532.47;;;14.49;100.00
23176;BME280;19910;42.652;23.332;2022-09-27T05:57:39;93536.75;;;14.50;100.00
23176;BME280;19910;42.652;23.332;2022-09-27T06:00:07;93541.47;;;14.56;100.00
23176;BME280;19910;42.652;23.332;2022-09-27T06:02:34;93524.19;;;14.38;100.00
23176;BME280;19910;42.652;23.332;2022-09-27T06:05:00;93534.28;;;14.38;100.00
23176;BME280;19910;42.652;23.332;2022-09-27T06:07:29;93546.03;;;14.42;100.00
23176;BME280;19910;42.652;23.332;2022-09-27T06:09:56;93551.91;;;14.44;100.00
23176;BME280;19910;42.652;23.332;2022-09-27T06:12:23;93559.03;;;14.59;100.00
23176;BME280;19910;42.652;23.332;2022-09-27T06:14:51;93534.47;;;14.55;100.00
23176;BME280;19910;42.652;23.332;2022-09-27T06:17:18;93523.09;;;14.43;100.00
23176;BME280;19910;42.652;23.332;2022-09-27T06:19:44;93534.50;;;14.59;100.00
23176;BME280;19910;42.652;23.332;2022-09-27T06:22:12;93530.63;;;14.67;100.00
23176;BME280;19910;42.652;23.332;2022-09-27T06:24:39;93526.81;;;14.75;100.00
23176;BME280;19910;42.652;23.332;2022-09-27T06:27:06;93530.78;;;14.88;100.00
23176;BME280;19910;42.652;23.332;2022-09-27T06:29:32;93533.94;;;14.98;100.00
23176;BME280;19910;42.652;23.332;2022-09-27T06:32:01;93515.16;;;14.82;100.00
23176;BME280;19910;42.652;23.332;2022-09-27T06:34:28;93523.63;;;14.66;100.00
23176;BME280;19910;42.652;23.332;2022-09-27T06:36:54;93532.25;;;14.75;100.00
23176;BME280;19910;42.652;23.332;2022-09-27T06:39:22;93548.66;;;14.82;100.00
23176;BME280;19910;42.652;23.332;2022-09-27T06:41:52;93526.00;;;14.71;100.00
23176;BME280;19910;42.652;23.332;2022-09-27T06:44:22;93554.84;;;14.79;100.00
23176;BME280;19910;42.652;23.332;2022-09-27T06:46:50;93552.63;;;14.96;100.00
23176;BME280;19910;42.652;23.332;2022-09-27T06:49:18;93530.41;;;14.93;100.00
23176;BME280;19910;42.652;23.332;2022-09-27T06:51:46;93537.00;;;14.92;100.00
23176;BME280;19910;42.652;23.332;2022-09-27T06:54:13;93541.00;;;15.02;100.00
23176;BME280;19910;42.652;23.332;2022-09-27T06:56:40;93531.31;;;15.15;100.00
23176;BME280;19910;42.652;23.332;2022-09-27T06:59:07;93531.69;;;15.17;100.00
23176;BME280;19910;42.652;23.332;2022-09-27T07:01:51;93545.00;;;15.26;100.00
23176;BME280;19910;42.652;23.332;2022-09-27T07:04:19;93530.16;;;15.16;100.00
23176;BME280;19910;42.652;23.332;2022-09-27T07:06:45;93535.44;;;14.91;100.00
23176;BME280;19910;42.652;23.332;2022-09-27T07:09:13;93551.09;;;15.02;100.00
23176;BME280;19910;42.652;23.332;2022-09-27T07:11:39;93543.78;;;15.16;100.00
23176;BME280;19910;42.652;23.332;2022-09-27T07:14:08;93547.28;;;15.20;100.00
23176;BME280;19910;42.652;23.332;2022-09-27T07:16:35;93538.72;;;15.15;100.00
23176;BME280;19910;42.652;23.332;2022-09-27T07:19:02;93534.81;;;15.16;100.00
23176;BME280;19910;42.652;23.332;2022-09-27T07:21:31;93534.03;;;15.15;100.00
23176;BME280;19910;42.652;23.332;2022-09-27T07:23:58;93538.72;;;15.15;100.00
23176;BME280;19910;42.652;23.332;2022-09-27T07:26:25;93504.28;;;14.85;100.00
23176;BME280;19910;42.652;23.332;2022-09-27T07:28:52;93544.03;;;14.93;100.00
23176;BME280;19910;42.652;23.332;2022-09-27T07:31:19;93538.63;;;15.01;100.00
23176;BME280;19910;42.652;23.332;2022-09-27T07:33:46;93542.06;;;14.90;100.00
23176;BME280;19910;42.652;23.332;2022-09-27T07:36:13;93537.66;;;14.68;100.00
23176;BME280;19910;42.652;23.332;2022-09-27T07:38:41;93547.75;;;14.64;100.00
23176;BME280;19910;42.652;23.332;2022-09-27T07:41:10;93564.91;;;14.68;100.00
23176;BME280;19910;42.652;23.332;2022-09-27T07:43:38;93567.75;;;14.82;100.00
23176;BME280;19910;42.652;23.332;2022-09-27T07:46:05;93580.63;;;14.85;100.00
23176;BME280;19910;42.652;23.332;2022-09-27T07:48:32;93590.00;;;14.95;100.00
23176;BME280;19910;42.652;23.332;2022-09-27T07:50:59;93579.03;;;14.81;100.00
23176;BME280;19910;42.652;23.332;2022-09-27T07:53:26;93577.78;;;14.71;100.00
23176;BME280;19910;42.652;23.332;2022-09-27T07:55:54;93565.28;;;14.67;100.00
23176;BME280;19910;42.652;23.332;2022-09-27T07:58:21;93573.47;;;14.67;100.00
23176;BME280;19910;42.652;23.332;2022-09-27T08:00:48;93577.47;;;14.83;100.00
23176;BME280;19910;42.652;23.332;2022-09-27T08:03:16;93558.75;;;14.75;100.00
23176;BME280;19910;42.652;23.332;2022-09-27T08:05:43;93550.88;;;14.66;100.00
23176;BME280;19910;42.652;23.332;2022-09-27T08:08:11;93525.25;;;14.74;100.00
23176;BME280;19910;42.652;23.332;2022-09-27T08:10:38;93517.44;;;14.76;100.00
23176;BME280;19910;42.652;23.332;2022-09-27T08:13:10;93512.81;;;14.80;100.00
23176;BME280;19910;42.652;23.332;2022-09-27T08:15:37;93517.50;;;14.83;100.00
23176;BME280;19910;42.652;23.332;2022-09-27T08:18:05;93525.03;;;15.08;100.00
23176;BME280;19910;42.652;23.332;2022-09-27T08:20:33;93545.00;;;15.26;100.00
23176;BME280;19910;42.652;23.332;2022-09-27T08:23:00;93562.91;;;15.23;100.00
23176;BME280;19910;42.652;23.332;2022-09-27T08:25:28;93558.97;;;15.14;100.00
23176;BME280;19910;42.652;23.332;2022-09-27T08:27:56;93553.91;;;15.16;100.00
23176;BME280;19910;42.652;23.332;2022-09-27T08:30:24;93557.47;;;15.27;100.00
23176;BME280;19910;42.652;23.332;2022-09-27T08:32:54;93539.56;;;15.29;100.00
23176;BME280;19910;42.652;23.332;2022-09-27T08:35:22;93516.13;;;15.21;100.00
23176;BME280;19910;42.652;23.332;2022-09-27T08:37:52;93518.19;;;15.53;100.00
23176;BME280;19910;42.652;23.332;2022-09-27T08:40:20;93521.72;;;15.60;100.00
23176;BME280;19910;42.652;23.332;2022-09-27T08:42:58;93503.84;;;15.81;100.00
23176;BME280;19910;42.652;23.332;2022-09-27T08:45:30;93515.56;;;15.92;100.00
23176;BME280;19910;42.652;23.332;2022-09-27T08:48:00;93503.09;;;16.12;100.00
23176;BME280;19910;42.652;23.332;2022-09-27T08:50:29;93514.00;;;16.44;100.00
23176;BME280;19910;42.652;23.332;2022-09-27T08:53:02;93527.69;;;16.51;100.00
23176;BME280;19910;42.652;23.332;2022-09-27T08:55:34;93504.63;;;16.59;100.00
23176;BME280;19910;42.652;23.332;2022-09-27T08:58:08;93517.16;;;16.50;100.00
23176;BME280;19910;42.652;23.332;2022-09-27T09:00:39;93514.81;;;16.52;100.00
23176;BME280;19910;42.652;23.332;2022-09-27T09:03:10;93488.94;;;16.95;100.00
23176;BME280;19910;42.652;23.332;2022-09-27T09:05:47;93488.09;;;17.20;100.00
23176;BME280;19910;42.652;23.332;2022-09-27T09:08:31;93480.81;;;17.75;100.00
23176;BME280;19910;42.652;23.332;2022-09-27T09:11:05;93481.25;;;18.19;97.77
23176;BME280;19910;42.652;23.332;2022-09-27T09:14:32;93473.28;;;17.87;94.88
23176;BME280;19910;42.652;23.332;2022-09-27T09:17:09;93471.69;;;17.13;100.00
23176;BME280;19910;42.652;23.332;2022-09-27T09:19:48;93484.22;;;17.07;100.00
23176;BME280;19910;42.652;23.332;2022-09-27T09:22:32;93487.22;;;17.37;100.00
23176;BME280;19910;42.652;23.332;2022-09-27T09:25:14;93491.34;;;16.79;100.00
23176;BME280;19910;42.652;23.332;2022-09-27T09:27:53;93497.25;;;16.67;100.00
23176;BME280;19910;42.652;23.332;2022-09-27T09:30:31;93497.09;;;17.17;100.00
23176;BME280;19910;42.652;23.332;2022-09-27T09:33:13;93490.31;;;17.46;100.00
23176;BME280;19910;42.652;23.332;2022-09-27T09:35:44;93477.75;;;17.52;100.00
23176;BME280;19910;42.652;23.332;2022-09-27T09:38:18;93476.19;;;17.51;100.00
23176;BME280;19910;42.652;23.332;2022-09-27T09:40:50;93484.38;;;17.65;97.52
23176;BME280;19910;42.652;23.332;2022-09-27T09:43:20;93481.06;;;17.92;98.49
23176;BME280;19910;42.652;23.332;2022-09-27T09:45:54;93479.66;;;17.69;98.17
23176;BME280;19910;42.652;23.332;2022-09-27T09:48:29;93494.94;;;17.56;97.06
23176;BME280;19910;42.652;23.332;2022-09-27T09:50:59;93487.19;;;17.48;98.48
23176;BME280;19910;42.652;23.332;2022-09-27T09:53:35;93478.72;;;17.14;100.00
23176;BME280;19910;42.652;23.332;2022-09-27T09:56:08;93479.44;;;17.25;100.00
23176;BME280;19910;42.652;23.332;2022-09-27T09:58:43;93483.88;;;17.81;100.00
23176;BME280;19910;42.652;23.332;2022-09-27T10:01:17;93473.78;;;18.26;96.97
23176;BME280;19910;42.652;23.332;2022-09-27T10:03:47;93470.75;;;18.10;95.74
23176;BME280;19910;42.652;23.332;2022-09-27T10:06:15;93460.38;;;17.87;97.21
23176;BME280;19910;42.652;23.332;2022-09-27T10:08:43;93462.16;;;17.49;100.00
23176;BME280;19910;42.652;23.332;2022-09-27T10:11:18;93471.94;;;17.43;100.00
23176;BME280;19910;42.652;23.332;2022-09-27T10:13:46;93485.44;;;17.86;100.00
23176;BME280;19910;42.652;23.332;2022-09-27T10:16:15;93472.19;;;17.73;99.68
23176;BME280;19910;42.652;23.332;2022-09-27T10:18:43;93460.31;;;17.91;100.00
23176;BME280;19910;42.652;23.332;2022-09-27T10:21:14;93464.97;;;18.01;98.18
23176;BME280;19910;42.652;23.332;2022-09-27T10:24:04;93463.13;;;18.32;97.46
23176;BME280;19910;42.652;23.332;2022-09-27T10:26:32;93466.09;;;18.52;95.28
23176;BME280;19910;42.652;23.332;2022-09-27T10:29:13;93446.25;;;18.81;93.83
23176;BME280;19910;42.652;23.332;2022-09-27T10:31:42;93453.28;;;19.16;92.96
23176;BME280;19910;42.652;23.332;2022-09-27T10:34:17;93454.94;;;19.41;91.65
23176;BME280;19910;42.652;23.332;2022-09-27T10:37:01;93459.75;;;19.33;89.58
23176;BME280;19910;42.652;23.332;2022-09-27T10:39:29;93456.84;;;19.13;90.42
23176;BME280;19910;42.652;23.332;2022-09-27T10:41:56;93465.22;;;19.37;90.78
23176;BME280;19910;42.652;23.332;2022-09-27T10:44:25;93451.34;;;19.78;90.24
23176;BME280;19910;42.652;23.332;2022-09-27T10:46:54;93419.75;;;19.63;87.27
23176;BME280;19910;42.652;23.332;2022-09-27T10:49:25;93415.28;;;19.72;88.40
23176;BME280;19910;42.652;23.332;2022-09-27T10:51:57;93417.56;;;20.28;84.84
23176;BME280;19910;42.652;23.332;2022-09-27T10:54:26;93412.38;;;20.56;84.65
23176;BME280;19910;42.652;23.332;2022-09-27T10:56:57;93410.13;;;20.91;80.84
23176;BME280;19910;42.652;23.332;2022-09-27T10:59:26;93406.47;;;20.78;80.52
23176;BME280;19910;42.652;23.332;2022-09-27T11:01:56;93396.53;;;20.84;83.23
23176;BME280;19910;42.652;23.332;2022-09-27T11:04:28;93400.66;;;20.52;81.33
23176;BME280;19910;42.652;23.332;2022-09-27T11:07:10;93399.28;;;20.41;79.98
23176;BME280;19910;42.652;23.332;2022-09-27T11:09:46;93403.66;;;20.38;82.09
23176;BME280;19910;42.652;23.332;2022-09-27T11:12:15;93400.41;;;20.20;82.77
23176;BME280;19910;42.652;23.332;2022-09-27T11:14:53;93387.25;;;20.08;84.75
23176;BME280;19910;42.652;23.332;2022-09-27T11:17:26;93393.94;;;20.30;83.17
23176;BME280;19910;42.652;23.332;2022-09-27T11:20:13;93394.19;;;20.63;80.51
23176;BME280;19910;42.652;23.332;2022-09-27T11:23:24;93389.47;;;21.22;79.44
23176;BME280;19910;42.652;23.332;2022-09-27T11:26:06;93396.84;;;21.29;77.15
23176;BME280;19910;42.652;23.332;2022-09-27T11:28:46;93377.31;;;21.40;77.73
23176;BME280;19910;42.652;23.332;2022-09-27T11:31:22;93360.22;;;21.64;78.14
23176;BME280;19910;42.652;23.332;2022-09-27T11:34:21;93367.19;;;21.53;76.35
23176;BME280;19910;42.652;23.332;2022-09-27T11:39:29;93351.66;;;20.87;78.23
23176;BME280;19910;42.652;23.332;2022-09-27T11:42:21;93345.91;;;20.98;78.68
23176;BME280;19910;42.652;23.332;2022-09-27T11:44:57;93348.19;;;20.83;79.60
23176;BME280;19910;42.652;23.332;2022-09-27T11:47:34;93358.41;;;20.82;78.74
23176;BME280;19910;42.652;23.332;2022-09-27T11:53:12;93341.31;;;21.11;76.72
23176;BME280;19910;42.652;23.332;2022-09-27T11:55:49;93322.63;;;21.38;74.63
23176;BME280;19910;42.652;23.332;2022-09-27T11:58:24;93318.28;;;21.73;73.09
23176;BME280;19910;42.652;23.332;2022-09-27T12:01:00;93335.19;;;22.24;72.52
23176;BME280;19910;42.652;23.332;2022-09-27T12:04:11;93328.59;;;22.34;70.28
23176;BME280;19910;42.652;23.332;2022-09-27T12:06:51;93316.59;;;22.69;69.97
23176;BME280;19910;42.652;23.332;2022-09-27T12:09:23;93319.44;;;22.53;67.63
23176;BME280;19910;42.652;23.332;2022-09-27T12:11:57;93304.63;;;22.31;69.65
23176;BME280;19910;42.652;23.332;2022-09-27T12:14:31;93303.59;;;22.41;68.74
23176;BME280;19910;42.652;23.332;2022-09-27T12:17:01;93316.16;;;22.71;66.96
23176;BME280;19910;42.652;23.332;2022-09-27T12:19:32;93307.44;;;22.73;65.24
23176;BME280;19910;42.652;23.332;2022-09-27T12:22:02;93297.78;;;22.52;66.99
23176;BME280;19910;42.652;23.332;2022-09-27T12:24:31;93286.53;;;22.59;66.36
23176;BME280;19910;42.652;23.332;2022-09-27T12:27:04;93277.50;;;22.71;67.29
23176;BME280;19910;42.652;23.332;2022-09-27T12:29:36;93263.88;;;22.80;66.92
23176;BME280;19910;42.652;23.332;2022-09-27T12:32:10;93255.19;;;22.65;67.35
23176;BME280;19910;42.652;23.332;2022-09-27T12:34:44;93259.13;;;22.81;66.19
23176;BME280;19910;42.652;23.332;2022-09-27T12:37:17;93260.44;;;22.76;66.65
23176;BME280;19910;42.652;23.332;2022-09-27T12:39:49;93255.81;;;22.86;66.49
23176;BME280;19910;42.652;23.332;2022-09-27T12:42:23;93258.91;;;22.88;65.62
23176;BME280;19910;42.652;23.332;2022-09-27T12:44:51;93246.69;;;23.27;65.15
23176;BME280;19910;42.652;23.332;2022-09-27T12:47:30;93237.41;;;23.21;64.14
23176;BME280;19910;42.652;23.332;2022-09-27T12:50:02;93237.94;;;23.03;64.82
23176;BME280;19910;42.652;23.332;2022-09-27T12:52:34;93234.41;;;23.15;63.55
23176;BME280;19910;42.652;23.332;2022-09-27T12:55:35;93217.38;;;23.55;62.97
23176;BME280;19910;42.652;23.332;2022-09-27T12:58:39;93238.28;;;23.43;62.23
23176;BME280;19910;42.652;23.332;2022-09-27T13:01:15;93233.66;;;23.53;62.85
23176;BME280;19910;42.652;23.332;2022-09-27T13:04:10;93219.44;;;23.89;61.13
23176;BME280;19910;42.652;23.332;2022-09-27T13:09:59;93239.94;;;24.13;58.42
23176;BME280;19910;42.652;23.332;2022-09-27T13:12:32;93241.03;;;24.28;56.93
23176;BME280;19910;42.652;23.332;2022-09-27T13:15:04;93229.50;;;24.73;53.46
23176;BME280;19910;42.652;23.332;2022-09-27T13:17:34;93240.22;;;25.15;50.27
23176;BME280;19910;42.652;23.332;2022-09-27T13:20:40;93219.13;;;25.48;49.02